Time;durP1;ratioP1;P1;durP2;ratioP2;P2;SDS_P1;SDS_P2;PMS_P1;PMS_P2;Temp;Humidity;BMP_temperature;BMP_pressure;BME280_temperature;BME280_humidity;BME280_pressure;Samples;Min_cycle;Max_cycle;Signal;HPM_P1;HPM_P2
2022/10/16 00:00:18;;;;;;;39.98;20.62;;;;;;;0.75;100.00;100505.79;1571804;91;20973;-82
2022/10/16 00:02:48;;;;;;;43.45;20.12;;;;;;;0.72;100.00;100507.59;1571622;91;21216;-82
2022/10/16 00:05:17;;;;;;;45.17;21.17;;;;;;;0.68;100.00;100507.75;1570538;90;20937;-80
2022/10/16 00:07:47;;;;;;;41.25;20.50;;;;;;;0.65;100.00;100507.68;1571558;91;20940;-81
2022/10/16 00:10:18;;;;;;;36.93;19.55;;;;;;;0.61;100.00;100514.06;1571503;91;21071;-77
2022/10/16 00:12:49;;;;;;;44.18;19.70;;;;;;;0.57;100.00;100508.84;1571519;90;21025;-76
2022/10/16 00:15:18;;;;;;;38.53;20.08;;;;;;;0.55;100.00;100511.47;1571847;91;21855;-76
2022/10/16 00:17:52;;;;;;;36.60;19.98;;;;;;;0.53;100.00;100512.22;1571891;90;20893;-76
2022/10/16 00:20:28;;;;;;;42.58;19.32;;;;;;;0.48;100.00;100510.20;1572025;91;20996;-82
2022/10/16 00:23:05;;;;;;;34.73;19.02;;;;;;;0.46;100.00;100506.90;1561424;91;21000;-79
2022/10/16 00:25:36;;;;;;;36.95;18.98;;;;;;;0.43;100.00;100508.70;1571876;91;20984;-80
2022/10/16 00:28:09;;;;;;;35.92;18.27;;;;;;;0.42;100.00;100508.92;1572043;90;21165;-80
2022/10/16 00:30:39;;;;;;;35.17;19.62;;;;;;;0.39;100.00;100517.48;1571860;90;21001;-80
2022/10/16 00:33:07;;;;;;;40.40;18.55;;;;;;;0.36;100.00;100512.00;1572084;90;20962;-79
2022/10/16 00:35:35;;;;;;;33.83;17.62;;;;;;;0.31;100.00;100505.92;1571915;90;20980;-79
2022/10/16 00:38:02;;;;;;;36.95;18.95;;;;;;;0.29;100.00;100513.95;1573575;89;20932;-84
2022/10/16 00:40:34;;;;;;;33.48;18.05;;;;;;;0.26;100.00;100508.47;1577133;89;21210;-82
2022/10/16 00:43:36;;;;;;;38.65;16.97;;;;;;;0.25;100.00;100512.75;1571956;89;21052;-80
2022/10/16 00:46:04;;;;;;;35.05;18.20;;;;;;;0.23;100.00;100517.02;1541813;90;20985;-84
2022/10/16 00:48:35;;;;;;;39.35;18.48;;;;;;;0.22;100.00;100519.95;1560941;91;20977;-84
2022/10/16 00:51:14;;;;;;;36.65;17.60;;;;;;;0.18;100.00;100521.45;1571878;90;21013;-83
2022/10/16 00:53:47;;;;;;;33.20;16.52;;;;;;;0.15;100.00;100519.19;1561505;91;20965;-83
2022/10/16 00:56:17;;;;;;;35.48;17.82;;;;;;;0.13;100.00;100523.99;1561231;91;21029;-83
2022/10/16 00:58:48;;;;;;;31.05;16.52;;;;;;;0.10;100.00;100527.14;1571817;90;21571;-84
2022/10/16 01:01:19;;;;;;;32.17;16.07;;;;;;;0.08;100.00;100524.66;1561373;91;21527;-78
2022/10/16 01:03:50;;;;;;;33.00;15.63;;;;;;;0.05;100.00;100524.28;1571981;91;21630;-78
2022/10/16 01:06:42;;;;;;;32.05;16.02;;;;;;;0.02;100.00;100522.85;1571565;90;21138;-81
2022/10/16 01:09:35;;;;;;;29.48;15.53;;;;;;;0.00;100.00;100525.77;1561156;91;21634;-80
2022/10/16 01:12:34;;;;;;;33.25;15.48;;;;;;;-0.02;100.00;100525.72;1572106;91;21084;-82
2022/10/16 01:15:24;;;;;;;31.15;16.05;;;;;;;-0.04;100.00;100526.47;1569438;91;20944;-80
2022/10/16 01:18:26;;;;;;;30.95;15.70;;;;;;;-0.06;100.00;100525.87;1581697;90;21451;-82
2022/10/16 01:21:03;;;;;;;33.08;16.23;;;;;;;-0.09;100.00;100529.02;1561535;91;21036;-81
2022/10/16 01:24:00;;;;;;;27.93;14.28;;;;;;;-0.12;100.00;100531.63;1571880;90;20969;-81
2022/10/16 01:27:16;;;;;;;36.30;16.20;;;;;;;-0.16;100.00;100531.77;1561521;91;21460;-78
2022/10/16 01:30:13;;;;;;;33.28;15.65;;;;;;;-0.19;100.00;100536.26;1566944;90;21579;-77
2022/10/16 01:32:49;;;;;;;30.57;15.38;;;;;;;-0.22;100.00;100531.83;1571895;90;21000;-78
2022/10/16 01:35:35;;;;;;;28.87;14.30;;;;;;;-0.25;100.00;100532.27;1553210;91;21013;-76
2022/10/16 01:38:15;;;;;;;35.55;14.30;;;;;;;-0.28;100.00;100532.70;1571931;91;21021;-76
2022/10/16 01:40:56;;;;;;;29.10;14.83;;;;;;;-0.30;100.00;100539.67;1571910;89;20953;-77
2022/10/16 01:43:36;;;;;;;24.82;13.03;;;;;;;-0.32;100.00;100540.94;1571905;89;21052;-78
2022/10/16 01:46:05;;;;;;;29.40;13.83;;;;;;;-0.34;100.00;100539.81;1572047;90;21634;-78
2022/10/16 01:48:36;;;;;;;34.03;16.20;;;;;;;-0.37;100.00;100538.90;1571896;90;21848;-80
2022/10/16 01:51:09;;;;;;;28.80;15.03;;;;;;;-0.40;100.00;100543.39;1581714;90;21649;-78
2022/10/16 01:53:40;;;;;;;26.48;14.50;;;;;;;-0.42;100.00;100550.88;1571992;90;21535;-79
2022/10/16 01:56:11;;;;;;;28.40;14.25;;;;;;;-0.44;100.00;100553.79;1571995;90;20972;-88
2022/10/16 01:59:04;;;;;;;28.45;14.78;;;;;;;-0.46;100.00;100555.87;1572037;90;20970;-88
2022/10/16 02:01:37;;;;;;;36.13;17.67;;;;;;;-0.47;100.00;100554.75;1561555;91;20965;-87
2022/10/16 02:04:20;;;;;;;36.80;18.25;;;;;;;-0.51;100.00;100553.53;1581410;90;20941;-80
2022/10/16 02:06:48;;;;;;;37.10;17.23;;;;;;;-0.53;100.00;100553.75;1572322;90;21025;-81
2022/10/16 02:09:16;;;;;;;36.42;16.42;;;;;;;-0.54;100.00;100558.02;1571915;90;21570;-79
2022/10/16 02:11:48;;;;;;;39.03;15.53;;;;;;;-0.58;100.00;100557.66;1571977;91;21067;-85
2022/10/16 02:14:18;;;;;;;31.25;14.58;;;;;;;-0.60;100.00;100556.22;1571833;90;21545;-83
2022/10/16 02:16:51;;;;;;;29.45;15.30;;;;;;;-0.61;100.00;100558.09;1572090;90;20973;-83
2022/10/16 02:19:24;;;;;;;39.25;15.93;;;;;;;-0.64;100.00;100555.83;1561416;91;20937;-81
2022/10/16 02:22:01;;;;;;;25.52;13.03;;;;;;;-0.65;100.00;100554.17;1572225;90;21016;-84
2022/10/16 02:24:58;;;;;;;27.98;14.73;;;;;;;-0.68;100.00;100555.96;1572023;90;20937;-84
2022/10/16 02:27:40;;;;;;;31.12;14.75;;;;;;;-0.71;100.00;100559.09;1571935;90;21032;-84
2022/10/16 02:30:28;;;;;;;29.57;13.18;;;;;;;-0.73;100.00;100563.35;1571958;91;21536;-82
2022/10/16 02:33:01;;;;;;;30.05;14.58;;;;;;;-0.76;100.00;100558.39;1572050;91;21445;-81
2022/10/16 02:35:31;;;;;;;29.40;13.45;;;;;;;-0.77;100.00;100568.05;1571947;91;20949;-84
2022/10/16 02:38:03;;;;;;;25.50;13.90;;;;;;;-0.80;100.00;100564.44;1572101;90;20965;-79
2022/10/16 02:40:32;;;;;;;32.70;14.90;;;;;;;-0.83;100.00;100566.22;1572035;89;21218;-78
2022/10/16 02:43:03;;;;;;;30.40;14.00;;;;;;;-0.84;100.00;100569.43;1572015;89;20890;-79
2022/10/16 02:45:38;;;;;;;29.63;14.55;;;;;;;-0.87;100.00;100567.69;1561632;91;21484;-79
2022/10/16 02:48:12;;;;;;;27.58;14.75;;;;;;;-0.90;100.00;100568.95;1571873;90;21004;-80
2022/10/16 02:50:40;;;;;;;32.30;15.23;;;;;;;-0.91;100.00;100575.38;1572266;90;20972;-81
2022/10/16 02:53:09;;;;;;;25.97;14.33;;;;;;;-0.93;100.00;100575.29;1571961;90;20890;-82
2022/10/16 02:55:42;;;;;;;28.73;15.30;;;;;;;-0.95;100.00;100574.16;1571905;91;21016;-83
2022/10/16 02:58:13;;;;;;;32.63;15.23;;;;;;;-0.97;100.00;100577.59;1561129;91;21440;-83
2022/10/16 03:00:43;;;;;;;25.60;13.30;;;;;;;-0.98;100.00;100585.37;1570884;90;20971;-82
2022/10/16 03:03:11;;;;;;;30.90;14.55;;;;;;;-1.00;100.00;100578.02;1571888;90;20957;-83
2022/10/16 03:05:42;;;;;;;27.70;13.90;;;;;;;-1.03;100.00;100582.48;1572153;90;21744;-83
2022/10/16 03:08:15;;;;;;;31.75;16.10;;;;;;;-1.04;100.00;100582.19;1561450;91;20996;-81
2022/10/16 03:10:42;;;;;;;26.57;13.78;;;;;;;-1.05;100.00;100585.92;1571781;90;21012;-82
2022/10/16 03:13:09;;;;;;;31.30;14.40;;;;;;;-1.07;100.00;100582.61;1571987;91;20946;-82
2022/10/16 03:15:40;;;;;;;26.73;14.58;;;;;;;-1.08;100.00;100588.52;1571852;90;20921;-82
2022/10/16 03:18:11;;;;;;;32.15;14.38;;;;;;;-1.09;100.00;100590.08;1571779;91;21311;-83
2022/10/16 03:20:43;;;;;;;52.20;14.28;;;;;;;-1.12;100.00;100586.47;1571760;91;21551;-83
2022/10/16 03:23:13;;;;;;;29.10;14.87;;;;;;;-1.14;100.00;100593.94;1572129;90;21460;-84
2022/10/16 03:25:42;;;;;;;27.15;14.00;;;;;;;-1.16;100.00;100594.70;1571109;90;20882;-83
2022/10/16 03:28:16;;;;;;;31.97;13.75;;;;;;;-1.18;100.00;100600.30;1572165;90;21002;-79
2022/10/16 03:30:49;;;;;;;26.90;13.20;;;;;;;-1.20;100.00;100595.65;1571655;90;21298;-77
2022/10/16 03:33:19;;;;;;;25.25;13.13;;;;;;;-1.22;100.00;100592.86;1572326;90;20957;-82
2022/10/16 03:35:58;;;;;;;29.40;14.28;;;;;;;-1.27;100.00;100593.50;1571926;91;21099;-86
2022/10/16 03:38:30;;;;;;;27.20;13.85;;;;;;;-1.29;100.00;100595.58;1560454;91;21024;-89
2022/10/16 03:40:59;;;;;;;24.67;13.03;;;;;;;-1.31;100.00;100596.83;1561449;91;21044;-86
2022/10/16 03:43:30;;;;;;;23.32;12.75;;;;;;;-1.33;100.00;100591.66;1571660;89;21167;-88
2022/10/16 03:46:00;;;;;;;37.88;13.65;;;;;;;-1.35;100.00;100589.17;1578715;90;20885;-76
2022/10/16 03:48:30;;;;;;;29.92;14.07;;;;;;;-1.37;100.00;100591.25;1572000;90;21064;-85
2022/10/16 03:51:01;;;;;;;34.90;14.18;;;;;;;-1.38;100.00;100591.46;1565420;89;21422;-81
2022/10/16 03:53:28;;;;;;;34.30;14.40;;;;;;;-1.39;100.00;100591.16;1587710;89;21043;-73
2022/10/16 03:55:58;;;;;;;29.85;13.50;;;;;;;-1.42;100.00;100591.58;1568883;89;20964;-82
2022/10/16 03:58:32;;;;;;;32.15;13.93;;;;;;;-1.43;100.00;100594.79;1568130;89;22259;-79
2022/10/16 04:01:02;;;;;;;26.12;13.25;;;;;;;-1.43;100.00;100601.53;1585170;89;20992;-80
2022/10/16 04:03:30;;;;;;;26.87;13.43;;;;;;;-1.45;100.00;100604.13;1588261;89;20937;-79
2022/10/16 04:05:57;;;;;;;28.38;15.45;;;;;;;-1.46;100.00;100597.08;1589272;89;21007;-73
2022/10/16 04:08:36;;;;;;;30.92;13.75;;;;;;;-1.49;100.00;100602.37;1586461;89;21210;-75
2022/10/16 04:11:04;;;;;;;31.30;12.53;;;;;;;-1.52;100.00;100605.48;1568157;89;20969;-71
2022/10/16 04:13:30;;;;;;;26.50;13.35;;;;;;;-1.52;100.00;100609.52;1571884;90;21031;-73
2022/10/16 04:15:57;;;;;;;25.55;13.78;;;;;;;-1.54;100.00;100610.77;1577693;90;21592;-71
2022/10/16 04:18:26;;;;;;;27.13;14.53;;;;;;;-1.55;100.00;100618.02;1540650;92;21064;-70
2022/10/16 04:20:54;;;;;;;26.27;12.73;;;;;;;-1.58;100.00;100617.09;1550817;92;21090;-73
2022/10/16 04:23:22;;;;;;;25.97;13.53;;;;;;;-1.57;100.00;100620.61;1578673;90;20913;-73
2022/10/16 04:25:49;;;;;;;28.55;13.30;;;;;;;-1.58;100.00;100627.87;1591397;89;21613;-71
2022/10/16 04:28:15;;;;;;;27.35;13.32;;;;;;;-1.57;100.00;100620.61;1578050;90;20992;-67
2022/10/16 04:30:43;;;;;;;29.05;13.70;;;;;;;-1.56;100.00;100618.23;1572163;91;21132;-71
2022/10/16 04:33:10;;;;;;;27.32;14.15;;;;;;;-1.56;100.00;100623.62;1572104;90;21130;-69
2022/10/16 04:35:36;;;;;;;25.52;13.20;;;;;;;-1.55;100.00;100636.05;1571884;91;20981;-72
2022/10/16 04:38:03;;;;;;;27.95;13.98;;;;;;;-1.55;100.00;100636.87;1571907;91;21464;-72
2022/10/16 04:40:32;;;;;;;28.40;14.45;;;;;;;-1.54;100.00;100636.36;1571147;88;21187;-70
2022/10/16 04:42:59;;;;;;;32.60;13.70;;;;;;;-1.56;100.00;100637.91;1568314;89;21020;-72
2022/10/16 04:45:26;;;;;;;27.67;14.28;;;;;;;-1.54;100.00;100648.47;1567910;91;21178;-80
2022/10/16 04:47:52;;;;;;;31.07;13.95;;;;;;;-1.55;100.00;100647.64;1559270;91;20929;-79
2022/10/16 04:50:19;;;;;;;36.53;15.58;;;;;;;-1.52;100.00;100655.82;1529976;93;20931;-79
2022/10/16 04:52:48;;;;;;;39.00;16.67;;;;;;;-1.47;100.00;100656.02;1560347;91;21115;-70
2022/10/16 04:55:15;;;;;;;40.73;16.37;;;;;;;-1.43;100.00;100654.56;1566257;91;20940;-74
2022/10/16 04:57:43;;;;;;;37.75;16.75;;;;;;;-1.40;100.00;100660.36;1573451;90;21203;-76
2022/10/16 05:00:11;;;;;;;37.40;16.87;;;;;;;-1.35;100.00;100669.98;1588377;90;20969;-77
2022/10/16 05:02:37;;;;;;;41.50;16.32;;;;;;;-1.31;100.00;100665.01;1580387;89;20968;-76
2022/10/16 05:05:06;;;;;;;35.05;16.10;;;;;;;-1.26;100.00;100669.77;1595305;89;20983;-76
2022/10/16 05:07:34;;;;;;;35.65;14.98;;;;;;;-1.21;100.00;100669.44;1554252;90;21598;-81
2022/10/16 05:10:00;;;;;;;37.50;14.68;;;;;;;-1.15;100.00;100674.47;1579415;89;21599;-80
2022/10/16 05:12:28;;;;;;;32.63;14.95;;;;;;;-1.08;100.00;100677.98;1571073;90;21064;-80
2022/10/16 05:14:58;;;;;;;30.92;15.08;;;;;;;-0.99;100.00;100676.70;1579036;90;21677;-81
2022/10/16 05:17:28;;;;;;;32.83;15.10;;;;;;;-0.91;100.00;100678.34;1589035;90;21079;-71
2022/10/16 05:20:00;;;;;;;33.58;14.35;;;;;;;-0.84;100.00;100683.19;1573224;90;21519;-75
2022/10/16 05:22:32;;;;;;;31.00;14.28;;;;;;;-0.75;100.00;100684.08;1578152;90;21181;-77
2022/10/16 05:25:09;;;;;;;41.85;14.00;;;;;;;-0.65;100.00;100684.14;1559487;91;21071;-76
2022/10/16 05:27:38;;;;;;;28.00;14.35;;;;;;;-0.55;100.00;100689.88;1581163;89;21075;-79
2022/10/16 05:30:07;;;;;;;38.92;15.88;;;;;;;-0.44;100.00;100690.55;1586543;89;20975;-71
2022/10/16 05:32:40;;;;;;;32.35;14.87;;;;;;;-0.34;100.00;100697.13;1578515;88;21087;-77
2022/10/16 05:35:09;;;;;;;32.30;16.20;;;;;;;-0.20;100.00;100701.10;1557410;91;21706;-84
2022/10/16 05:37:43;;;;;;;33.53;14.87;;;;;;;-0.05;100.00;100708.37;1553010;91;21029;-85
2022/10/16 05:40:12;;;;;;;45.65;19.92;;;;;;;0.13;100.00;100708.95;1553931;91;21073;-85
2022/10/16 05:42:42;;;;;;;47.43;21.60;;;;;;;0.35;100.00;100718.34;1547616;91;21468;-72
2022/10/16 05:45:13;;;;;;;45.12;20.70;;;;;;;0.58;100.00;100718.53;1571472;91;21635;-71
2022/10/16 05:47:43;;;;;;;44.25;20.90;;;;;;;0.78;100.00;100713.46;1581981;90;21196;-71
2022/10/16 05:50:15;;;;;;;39.33;17.45;;;;;;;0.97;100.00;100721.90;1588413;89;21535;-70
2022/10/16 05:52:46;;;;;;;39.25;16.32;;;;;;;1.19;100.00;100724.44;1583838;90;20989;-74
2022/10/16 05:55:18;;;;;;;27.52;14.25;;;;;;;1.40;100.00;100726.39;1579412;89;21558;-80
2022/10/16 05:57:45;;;;;;;35.30;15.68;;;;;;;1.58;100.00;100735.31;1577381;90;21513;-77
2022/10/16 06:00:12;;;;;;;27.30;13.30;;;;;;;1.75;100.00;100734.12;1579174;90;21143;-77
2022/10/16 06:02:41;;;;;;;40.40;20.10;;;;;;;1.88;100.00;100733.95;1576740;89;20925;-81
2022/10/16 06:05:08;;;;;;;32.55;15.28;;;;;;;2.03;100.00;100726.77;1571974;89;20927;-70
2022/10/16 06:07:35;;;;;;;41.70;18.42;;;;;;;2.19;100.00;100734.23;1564382;91;21529;-81
2022/10/16 06:10:04;;;;;;;33.53;18.15;;;;;;;2.34;100.00;100739.19;1554391;91;20948;-87
2022/10/16 06:12:30;;;;;;;50.30;22.10;;;;;;;2.46;100.00;100738.68;1562453;91;21147;-87
2022/10/16 06:14:58;;;;;;;33.83;17.42;;;;;;;2.57;100.00;100746.00;1563800;91;20980;-81
2022/10/16 06:17:25;;;;;;;29.65;16.15;;;;;;;2.69;100.00;100746.02;1561165;91;20982;-78
2022/10/16 06:19:52;;;;;;;34.50;16.73;;;;;;;2.80;100.00;100751.98;1550750;92;21000;-77
2022/10/16 06:22:19;;;;;;;25.82;15.18;;;;;;;2.93;100.00;100754.43;1550569;92;21029;-76
2022/10/16 06:24:47;;;;;;;35.33;16.30;;;;;;;3.04;100.00;100755.48;1560948;91;21180;-77
2022/10/16 06:27:13;;;;;;;35.98;17.27;;;;;;;3.15;100.00;100757.91;1556191;91;21124;-76
2022/10/16 06:29:42;;;;;;;31.25;15.58;;;;;;;3.26;100.00;100756.53;1564825;91;21484;-75
2022/10/16 06:32:09;;;;;;;29.87;14.53;;;;;;;3.49;100.00;100757.00;1554823;91;21071;-71
2022/10/16 06:34:36;;;;;;;25.35;13.55;;;;;;;3.95;100.00;100757.39;1558868;91;21036;-73
2022/10/16 06:37:03;;;;;;;23.57;13.03;;;;;;;4.63;100.00;100761.81;1560693;91;21807;-72
2022/10/16 06:39:31;;;;;;;25.92;11.78;;;;;;;5.36;100.00;100749.00;1572766;90;21456;-71
2022/10/16 06:41:57;;;;;;;23.80;11.05;;;;;;;5.94;96.92;100751.08;1578457;89;20972;-68
2022/10/16 06:44:26;;;;;;;19.73;10.85;;;;;;;6.39;92.02;100752.61;1575821;91;21047;-70
2022/10/16 06:46:53;;;;;;;21.12;10.25;;;;;;;6.75;89.38;100748.82;1548926;92;21536;-69
2022/10/16 06:49:22;;;;;;;19.37;10.70;;;;;;;7.15;88.21;100753.18;1549264;92;21144;-72
2022/10/16 06:51:48;;;;;;;18.32;10.48;;;;;;;7.59;85.84;100751.47;1549170;92;21593;-69
2022/10/16 06:54:15;;;;;;;20.25;10.00;;;;;;;8.00;82.02;100744.80;1548807;92;20991;-71
2022/10/16 06:56:43;;;;;;;22.62;13.58;;;;;;;8.23;78.77;100747.01;1562926;90;20977;-71
2022/10/16 06:59:09;;;;;;;24.07;12.03;;;;;;;8.36;77.80;100754.72;1549403;91;20944;-68
2022/10/16 07:01:36;;;;;;;20.17;10.13;;;;;;;8.65;77.78;100755.02;1548481;92;21125;-72
2022/10/16 07:04:03;;;;;;;27.98;11.80;;;;;;;9.04;74.75;100751.14;1548990;92;21466;-71
2022/10/16 07:06:33;;;;;;;22.37;11.63;;;;;;;9.20;73.85;100750.56;1526557;92;20951;-71
2022/10/16 07:09:06;;;;;;;22.40;11.93;;;;;;;9.43;71.99;100757.33;1603823;88;21008;-70
2022/10/16 07:11:32;;;;;;;17.35;9.83;;;;;;;9.62;71.33;100759.73;1572646;90;21139;-72
2022/10/16 07:13:59;;;;;;;16.17;9.40;;;;;;;9.97;70.84;100762.03;1572299;91;21238;-73
2022/10/16 07:16:28;;;;;;;15.20;8.23;;;;;;;10.33;69.33;100752.53;1572274;91;21043;-69
2022/10/16 07:18:58;;;;;;;18.20;9.53;;;;;;;10.68;66.93;100757.47;1572309;91;21007;-69
2022/10/16 07:21:28;;;;;;;21.07;8.63;;;;;;;10.83;65.92;100757.34;1566539;91;21632;-68
2022/10/16 07:23:58;;;;;;;21.15;9.88;;;;;;;11.01;65.44;100759.90;1560793;91;21540;-68
2022/10/16 07:26:25;;;;;;;22.13;8.48;;;;;;;11.25;65.74;100767.64;1572083;90;21255;-68
2022/10/16 07:28:56;;;;;;;14.15;7.75;;;;;;;11.52;64.29;100762.95;1542248;91;21162;-70
2022/10/16 07:31:23;;;;;;;17.62;9.33;;;;;;;11.72;62.39;100760.49;1563942;91;21621;-69
2022/10/16 07:33:51;;;;;;;13.43;8.10;;;;;;;11.84;63.20;100757.61;1572211;91;21004;-68
2022/10/16 07:36:19;;;;;;;14.35;7.50;;;;;;;12.08;60.90;100755.38;1527423;92;21159;-69
2022/10/16 07:38:46;;;;;;;28.57;8.35;;;;;;;12.14;61.50;100754.17;1564703;90;21138;-69
2022/10/16 07:41:18;;;;;;;12.23;7.03;;;;;;;12.33;61.26;100756.37;1545561;90;21059;-71
2022/10/16 07:43:50;;;;;;;12.68;6.35;;;;;;;12.50;60.39;100751.16;1579873;90;21687;-71
2022/10/16 07:46:18;;;;;;;13.28;6.35;;;;;;;12.65;58.18;100754.79;1554889;92;21620;-71
2022/10/16 07:48:46;;;;;;;12.58;7.05;;;;;;;12.68;57.33;100761.89;1554827;92;21018;-70
2022/10/16 07:51:17;;;;;;;13.75;8.00;;;;;;;12.73;57.14;100759.02;1560676;89;21779;-69
2022/10/16 07:53:45;;;;;;;13.70;7.17;;;;;;;12.96;58.01;100767.47;1568298;90;20973;-72
2022/10/16 07:56:11;;;;;;;15.20;8.15;;;;;;;13.33;57.16;100765.98;1573453;90;21562;-69
2022/10/16 07:58:39;;;;;;;13.15;7.20;;;;;;;13.66;55.44;100765.34;1569518;89;21586;-70
2022/10/16 08:01:08;;;;;;;13.58;7.00;;;;;;;13.72;54.52;100769.63;1555745;90;21003;-72
2022/10/16 08:03:35;;;;;;;13.18;6.53;;;;;;;13.82;53.88;100773.56;1555400;92;21333;-69
2022/10/16 08:06:02;;;;;;;11.15;6.05;;;;;;;14.05;53.86;100770.86;1555340;92;20931;-71
2022/10/16 08:08:29;;;;;;;13.80;6.00;;;;;;;14.33;51.46;100768.30;1542370;90;20984;-71
2022/10/16 08:10:56;;;;;;;11.22;6.10;;;;;;;14.37;51.53;100767.93;1556968;90;21638;-70
2022/10/16 08:13:24;;;;;;;12.70;7.08;;;;;;;14.46;50.90;100771.59;1555323;92;21138;-70
2022/10/16 08:15:51;;;;;;;14.38;6.62;;;;;;;14.67;50.36;100765.02;1530370;93;21870;-69
2022/10/16 08:18:18;;;;;;;16.40;7.20;;;;;;;14.94;50.41;100764.08;1555039;92;20952;-69
2022/10/16 08:20:45;;;;;;;15.63;9.08;;;;;;;15.32;49.50;100765.00;1555962;89;21107;-70
2022/10/16 08:23:12;;;;;;;15.63;8.45;;;;;;;15.47;48.48;100762.64;1568555;90;21082;-69
2022/10/16 08:25:40;;;;;;;14.90;6.33;;;;;;;15.60;47.74;100763.67;1555080;92;20976;-69
2022/10/16 08:28:08;;;;;;;13.10;6.15;;;;;;;15.80;47.06;100770.58;1569617;90;21179;-70
2022/10/16 08:30:35;;;;;;;14.58;5.78;;;;;;;16.03;46.70;100772.69;1577508;89;21600;-70
2022/10/16 08:33:02;;;;;;;11.85;5.00;;;;;;;16.29;43.95;100765.21;1553626;92;21040;-70
2022/10/16 08:35:28;;;;;;;10.65;6.03;;;;;;;16.24;42.65;100761.78;1604828;89;21009;-74
2022/10/16 08:37:55;;;;;;;14.80;5.85;;;;;;;16.10;43.95;100755.02;1604922;89;21047;-70
2022/10/16 08:40:31;;;;;;;9.48;5.45;;;;;;;16.24;43.01;100758.44;1604476;89;21240;-71
2022/10/16 08:43:06;;;;;;;9.60;4.30;;;;;;;16.24;42.55;100756.23;1602018;88;21647;-70
2022/10/16 08:45:50;;;;;;;10.93;5.30;;;;;;;16.07;40.48;100758.44;1598714;89;21534;-71
2022/10/16 08:48:44;;;;;;;151.68;17.37;;;;;;;16.06;41.44;100765.93;1600009;88;21015;-72
2022/10/16 08:51:22;;;;;;;10.90;4.15;;;;;;;16.32;40.75;100767.90;1601459;88;21021;-72
2022/10/16 08:53:58;;;;;;;10.20;4.00;;;;;;;16.31;39.39;100763.50;1594032;88;21117;-71
2022/10/16 08:56:25;;;;;;;6.70;3.55;;;;;;;16.08;38.99;100764.23;1566813;90;21040;-72
2022/10/16 08:58:53;;;;;;;5.50;3.80;;;;;;;15.95;39.11;100762.41;1567008;91;21822;-72
2022/10/16 09:01:25;;;;;;;5.95;3.67;;;;;;;15.95;38.62;100767.94;1565454;91;21063;-71
2022/10/16 09:04:45;;;;;;;7.75;3.55;;;;;;;15.81;38.53;100765.30;1567102;90;21475;-69
2022/10/16 09:07:32;;;;;;;4.92;3.00;;;;;;;15.78;38.34;100761.78;1566871;91;22101;-68
2022/10/16 09:10:25;;;;;;;7.22;3.12;;;;;;;15.62;38.58;100761.40;1566852;91;20969;-72
2022/10/16 09:13:11;;;;;;;7.85;4.25;;;;;;;15.63;37.89;100768.56;1568328;90;21654;-72
2022/10/16 09:16:15;;;;;;;5.50;2.87;;;;;;;15.68;38.79;100762.08;1566471;91;21111;-67
2022/10/16 09:19:10;;;;;;;6.05;3.65;;;;;;;15.82;37.45;100764.16;1522738;93;21579;-68
2022/10/16 09:21:43;;;;;;;10.68;3.87;;;;;;;16.07;38.76;100767.56;1553048;91;21708;-67
2022/10/16 09:24:18;;;;;;;7.42;4.08;;;;;;;16.45;38.66;100758.63;1520575;93;20936;-68
2022/10/16 09:26:54;;;;;;;9.78;4.60;;;;;;;16.77;37.77;100761.47;1537733;92;21056;-67
2022/10/16 09:29:33;;;;;;;37.00;7.47;;;;;;;16.97;36.45;100763.57;1531751;91;20983;-67
2022/10/16 09:32:11;;;;;;;10.23;4.83;;;;;;;16.76;37.96;100762.04;1558838;90;21061;-69
2022/10/16 09:34:43;;;;;;;7.15;4.28;;;;;;;16.72;37.54;100760.28;1559433;91;22102;-69
2022/10/16 09:37:14;;;;;;;7.60;4.17;;;;;;;16.58;38.26;100761.80;1526021;92;21053;-68
2022/10/16 09:39:54;;;;;;;9.07;4.63;;;;;;;16.63;37.07;100758.05;1587605;89;21083;-69
2022/10/16 09:42:34;;;;;;;12.13;4.53;;;;;;;16.65;37.67;100757.19;1591489;87;21035;-69
2022/10/16 09:45:04;;;;;;;9.48;4.90;;;;;;;16.62;36.52;100753.65;1597779;88;21123;-69
2022/10/16 09:47:34;;;;;;;12.10;5.00;;;;;;;16.39;38.02;100746.06;1559579;91;21364;-68
2022/10/16 09:50:17;;;;;;;8.73;4.87;;;;;;;16.39;38.10;100744.67;1579603;90;21078;-69
2022/10/16 09:52:50;;;;;;;10.72;4.92;;;;;;;16.66;37.75;100744.95;1552800;91;21062;-68
2022/10/16 09:55:18;;;;;;;8.85;4.12;;;;;;;17.00;36.70;100744.06;1600455;89;20980;-68
2022/10/16 09:57:57;;;;;;;8.55;4.25;;;;;;;17.03;36.70;100739.25;1582140;89;21079;-69
2022/10/16 10:00:24;;;;;;;8.10;4.47;;;;;;;17.16;36.69;100736.84;1600590;88;21632;-69
2022/10/16 10:02:50;;;;;;;15.38;4.87;;;;;;;17.06;36.19;100731.08;1601666;89;21071;-69
2022/10/16 10:05:25;;;;;;;11.63;4.60;;;;;;;16.89;35.63;100726.95;1601850;89;21078;-69
2022/10/16 10:08:02;;;;;;;8.38;4.30;;;;;;;16.55;36.80;100734.73;1600974;89;21058;-68
2022/10/16 10:10:31;;;;;;;6.12;4.00;;;;;;;16.51;37.22;100730.98;1597682;89;21095;-68
2022/10/16 10:12:59;;;;;;;11.97;3.70;;;;;;;16.64;36.68;100715.33;1562575;91;21602;-69
2022/10/16 10:15:31;;;;;;;19.20;4.85;;;;;;;16.71;35.74;100705.40;1601125;89;21573;-69
2022/10/16 10:17:58;;;;;;;9.60;3.95;;;;;;;16.72;36.61;100704.83;1567180;90;21143;-69
2022/10/16 10:20:34;;;;;;;17.02;4.40;;;;;;;16.79;36.54;100704.54;1569468;90;21090;-70
2022/10/16 10:23:22;;;;;;;7.37;3.85;;;;;;;16.88;36.99;100703.14;1556111;90;21101;-69
2022/10/16 10:26:09;;;;;;;7.72;4.28;;;;;;;16.87;35.50;100707.63;1567999;90;21131;-71
2022/10/16 10:29:04;;;;;;;6.97;3.87;;;;;;;16.95;35.52;100706.22;1560400;92;21050;-69
2022/10/16 10:31:40;;;;;;;7.70;4.10;;;;;;;17.14;36.40;100710.82;1582423;88;20979;-68
2022/10/16 10:34:21;;;;;;;6.72;3.87;;;;;;;17.41;34.69;100717.88;1561637;90;21103;-67
2022/10/16 10:37:08;;;;;;;6.80;3.98;;;;;;;17.37;34.83;100714.70;1577644;91;21139;-67
2022/10/16 10:39:40;;;;;;;12.07;3.80;;;;;;;17.33;33.54;100715.16;1492373;95;21597;-68
2022/10/16 10:42:36;;;;;;;8.65;3.65;;;;;;;17.24;34.24;100714.38;1562753;89;20971;-69
2022/10/16 10:45:20;;;;;;;14.47;5.50;;;;;;;17.34;34.13;100716.76;1512237;92;21087;-69
2022/10/16 10:48:23;;;;;;;18.40;8.98;;;;;;;17.47;33.68;100722.66;1557979;90;21089;-68
2022/10/16 10:50:58;;;;;;;7.33;3.83;;;;;;;17.53;34.70;100723.30;1552906;92;21139;-67
2022/10/16 10:53:34;;;;;;;6.28;3.75;;;;;;;17.77;33.87;100724.34;1575507;90;21189;-67
2022/10/16 10:56:32;;;;;;;6.87;4.28;;;;;;;17.79;33.05;100722.63;1525614;92;21526;-68
2022/10/16 10:59:18;;;;;;;6.87;3.87;;;;;;;17.67;34.65;100723.34;1577841;90;20975;-68
2022/10/16 11:01:55;;;;;;;8.35;4.15;;;;;;;17.69;33.22;100717.45;1553198;92;21113;-70
2022/10/16 11:04:40;;;;;;;14.23;4.50;;;;;;;17.66;33.52;100710.60;1576334;88;20971;-71
2022/10/16 11:07:21;;;;;;;11.25;4.97;;;;;;;17.56;33.16;100705.97;1568901;91;22058;-69
2022/10/16 11:09:53;;;;;;;14.13;4.93;;;;;;;17.51;33.71;100702.81;1603111;89;20948;-70
2022/10/16 11:12:31;;;;;;;15.20;4.87;;;;;;;17.55;33.98;100714.87;1577922;90;21060;-68
2022/10/16 11:15:22;;;;;;;7.40;4.60;;;;;;;17.67;34.38;100716.39;1602735;89;21004;-73
2022/10/16 11:17:54;;;;;;;9.90;4.50;;;;;;;17.76;33.71;100717.16;1577574;90;20991;-73
2022/10/16 11:20:32;;;;;;;10.68;4.72;;;;;;;17.56;34.22;100718.47;1603572;89;21254;-74
2022/10/16 11:23:30;;;;;;;7.45;4.00;;;;;;;17.87;34.10;100721.76;1577556;90;21028;-73
2022/10/16 11:26:01;;;;;;;8.25;4.22;;;;;;;18.32;33.54;100715.54;1602283;89;21008;-73
2022/10/16 11:28:37;;;;;;;15.70;7.53;;;;;;;18.56;33.88;100710.06;1577475;91;20971;-75
2022/10/16 11:31:15;;;;;;;11.85;5.17;;;;;;;18.81;32.55;100706.83;1595429;88;20923;-73
2022/10/16 11:34:21;;;;;;;8.78;4.15;;;;;;;18.83;31.88;100701.74;1581826;89;21097;-73
2022/10/16 11:36:55;;;;;;;11.43;5.15;;;;;;;18.58;32.65;100706.37;1552669;92;21047;-74
2022/10/16 11:39:28;;;;;;;6.97;4.22;;;;;;;18.43;32.74;100705.63;1577447;91;21023;-72